Time;durP1;ratioP1;P1;durP2;ratioP2;P2;SDS_P1;SDS_P2;PMS_P1;PMS_P2;Temp;Humidity;BMP_temperature;BMP_pressure;BME280_temperature;BME280_humidity;BME280_pressure;Samples;Min_cycle;Max_cycle;Signal;HPM_P1;HPM_P2
2022/06/11 00:01:36;;;;;;;11.93;5.53;;;;;;;;;;5114460;27;20135;-76
2022/06/11 00:04:07;;;;;;;10.13;5.93;;;;;;;;;;5124733;27;20401;-76
2022/06/11 00:06:36;;;;;;;11.70;5.55;;;;;;;;;;5114303;28;20508;-76
2022/06/11 00:09:02;;;;;;;11.68;6.20;;;;;;;;;;5116877;28;20052;-76
2022/06/11 00:11:28;;;;;;;9.25;5.43;;;;;;;;;;5091022;28;20058;-76
2022/06/11 00:13:55;;;;;;;12.02;5.53;;;;;;;;;;5123901;28;20043;-76
2022/06/11 00:16:22;;;;;;;9.40;5.68;;;;;;;;;;5113724;28;20046;-76
2022/06/11 00:18:58;;;;;;;9.20;5.45;;;;;;;;;;5117561;28;20070;-76
2022/06/11 00:21:26;;;;;;;9.63;5.53;;;;;;;;;;5123277;28;20042;-76
2022/06/11 00:23:52;;;;;;;12.10;5.80;;;;;;;;;;5111326;28;20501;-77
2022/06/11 00:26:20;;;;;;;11.25;6.15;;;;;;;;;;5120780;28;20403;-76
2022/06/11 00:28:46;;;;;;;11.13;5.88;;;;;;;;;;5119086;28;20514;-77
2022/06/11 00:31:13;;;;;;;11.60;5.18;;;;;;;;;;5112551;28;20044;-76
2022/06/11 00:33:40;;;;;;;9.93;5.20;;;;;;;;;;5123929;28;20039;-76
2022/06/11 00:36:07;;;;;;;10.05;5.10;;;;;;;;;;5113978;28;20050;-76
2022/06/11 00:38:33;;;;;;;7.32;4.10;;;;;;;;;;5116828;28;20243;-76
2022/06/11 00:41:00;;;;;;;8.85;4.20;;;;;;;;;;5122377;28;20077;-77
2022/06/11 00:43:28;;;;;;;8.65;4.30;;;;;;;;;;5110897;28;20058;-77
2022/06/11 00:45:58;;;;;;;9.65;4.80;;;;;;;;;;5120902;28;20151;-77
2022/06/11 00:48:28;;;;;;;8.07;4.38;;;;;;;;;;5118391;28;20092;-76
2022/06/11 00:51:06;;;;;;;8.18;4.63;;;;;;;;;;5111678;28;20313;-76
2022/06/11 00:53:38;;;;;;;7.40;4.10;;;;;;;;;;5098351;27;20039;-77
2022/06/11 00:56:07;;;;;;;9.25;4.50;;;;;;;;;;5114252;27;20048;-76
2022/06/11 00:58:35;;;;;;;8.23;3.95;;;;;;;;;;5121371;27;20035;-76
2022/06/11 01:01:01;;;;;;;9.25;3.75;;;;;;;;;;5127798;27;20494;-76
2022/06/11 01:03:47;;;;;;;6.97;3.83;;;;;;;;;;5116303;27;20118;-76
2022/06/11 01:06:28;;;;;;;7.70;3.45;;;;;;;;;;5119646;27;20039;-76
2022/06/11 01:08:54;;;;;;;7.47;3.00;;;;;;;;;;5127333;27;20085;-76
2022/06/11 01:11:47;;;;;;;8.18;3.08;;;;;;;;;;5116276;27;20047;-77
2022/06/11 01:14:32;;;;;;;9.90;3.25;;;;;;;;;;5100996;28;20036;-76
2022/06/11 01:16:58;;;;;;;;;;;;;;;;;;5127856;27;20104;-76
2022/06/11 01:19:24;;;;;;;6.53;2.50;;;;;;;;;;5117661;27;20351;-76
2022/06/11 01:22:05;;;;;;;7.45;2.90;;;;;;;;;;5120156;27;20074;-76
2022/06/11 01:24:58;;;;;;;7.95;2.70;;;;;;;;;;5127171;27;20066;-76
2022/06/11 01:27:24;;;;;;;8.10;2.88;;;;;;;;;;5114207;27;20047;-76
2022/06/11 01:29:56;;;;;;;7.57;2.50;;;;;;;;;;5102037;28;20368;-76
2022/06/11 01:32:26;;;;;;;7.18;3.00;;;;;;;;;;5127341;27;20427;-76
2022/06/11 01:35:07;;;;;;;8.43;2.70;;;;;;;;;;5098456;27;20430;-76
2022/06/11 01:37:41;;;;;;;7.80;3.10;;;;;;;;;;5119946;27;20046;-76
2022/06/11 01:40:26;;;;;;;7.07;2.67;;;;;;;;;;5126578;27;20040;-76
2022/06/11 01:42:52;;;;;;;;;;;;;;;;;;5102625;27;20504;-76
2022/06/11 01:45:27;;;;;;;7.93;2.80;;;;;;;;;;5120768;27;19923;-76
2022/06/11 01:47:55;;;;;;;8.30;2.85;;;;;;;;;;5125614;27;20054;-76
2022/06/11 01:50:23;;;;;;;7.22;2.75;;;;;;;;;;5096726;27;20046;-76
2022/06/11 01:52:49;;;;;;;8.90;3.05;;;;;;;;;;5106245;28;20035;-76
2022/06/11 01:55:24;;;;;;;10.48;2.83;;;;;;;;;;5121168;27;20506;-76
2022/06/11 01:58:09;;;;;;;9.68;2.80;;;;;;;;;;5096934;28;20313;-76
2022/06/11 02:00:41;;;;;;;11.98;3.25;;;;;;;;;;5089705;28;20040;-76
2022/06/11 02:03:22;;;;;;;8.85;2.70;;;;;;;;;;5111110;27;20031;-77
2022/06/11 02:05:49;;;;;;;8.55;2.58;;;;;;;;;;5113755;27;20122;-76
2022/06/11 02:08:21;;;;;;;8.50;3.25;;;;;;;;;;5109043;28;20501;-76
2022/06/11 02:11:07;;;;;;;6.47;2.83;;;;;;;;;;5096708;28;20044;-76
2022/06/11 02:13:40;;;;;;;7.20;2.65;;;;;;;;;;5091407;27;20051;-77
2022/06/11 02:16:18;;;;;;;6.03;2.38;;;;;;;;;;5077789;28;20494;-76
2022/06/11 02:18:46;;;;;;;8.88;3.28;;;;;;;;;;5095980;28;20322;-76
2022/06/11 02:21:14;;;;;;;5.28;2.60;;;;;;;;;;5089761;27;20042;-76
2022/06/11 02:23:49;;;;;;;9.05;3.10;;;;;;;;;;5096272;27;20035;-76
2022/06/11 02:26:27;;;;;;;10.80;2.90;;;;;;;;;;5105840;28;20054;-76
2022/06/11 02:28:54;;;;;;;10.82;3.00;;;;;;;;;;5105067;27;20043;-76
2022/06/11 02:31:23;;;;;;;8.15;3.00;;;;;;;;;;5096068;28;20035;-76
2022/06/11 02:33:49;;;;;;;7.18;2.85;;;;;;;;;;5090961;28;20039;-76
2022/06/11 02:36:18;;;;;;;7.70;3.03;;;;;;;;;;5083558;27;20046;-76
2022/06/11 02:38:45;;;;;;;7.88;3.03;;;;;;;;;;5112319;27;20043;-76
2022/06/11 02:41:18;;;;;;;7.15;3.17;;;;;;;;;;5095392;28;20040;-76
2022/06/11 02:43:45;;;;;;;10.00;3.27;;;;;;;;;;5107333;28;20513;-76
2022/06/11 02:48:57;;;;;;;10.68;3.30;;;;;;;;;;5096596;28;20130;-76
2022/06/11 02:51:25;;;;;;;8.25;3.08;;;;;;;;;;5108844;28;20039;-76
2022/06/11 02:53:51;;;;;;;7.97;3.30;;;;;;;;;;5099594;27;20039;-75
2022/06/11 02:56:17;;;;;;;10.15;3.78;;;;;;;;;;5083862;28;20042;-76
2022/06/11 02:58:43;;;;;;;8.15;2.97;;;;;;;;;;5090214;27;20204;-76
2022/06/11 03:01:10;;;;;;;11.25;4.13;;;;;;;;;;5095617;27;20394;-76
2022/06/11 03:03:37;;;;;;;9.68;3.80;;;;;;;;;;5104926;28;20055;-76
2022/06/11 03:06:04;;;;;;;8.32;3.70;;;;;;;;;;5102373;27;20039;-76
2022/06/11 03:08:30;;;;;;;6.20;3.13;;;;;;;;;;5096764;28;20163;-76
2022/06/11 03:10:57;;;;;;;8.77;3.53;;;;;;;;;;5108011;27;20035;-75
2022/06/11 03:13:24;;;;;;;10.55;4.10;;;;;;;;;;5098171;27;20042;-76
2022/06/11 03:15:50;;;;;;;8.85;3.67;;;;;;;;;;5101024;28;20534;-76
2022/06/11 03:18:16;;;;;;;8.88;4.03;;;;;;;;;;5105985;27;20050;-76
2022/06/11 03:20:43;;;;;;;10.10;4.45;;;;;;;;;;5093268;28;20035;-76
2022/06/11 03:23:09;;;;;;;10.88;4.88;;;;;;;;;;5096647;27;20039;-76
2022/06/11 03:25:36;;;;;;;10.27;4.90;;;;;;;;;;5098216;28;20119;-75
2022/06/11 03:28:09;;;;;;;8.55;4.70;;;;;;;;;;5084569;28;20035;-75
2022/06/11 03:30:36;;;;;;;8.30;4.05;;;;;;;;;;5107794;27;20039;-76
2022/06/11 03:33:02;;;;;;;9.43;4.10;;;;;;;;;;5081860;28;20040;-76
2022/06/11 03:35:28;;;;;;;10.57;4.45;;;;;;;;;;5091428;27;20039;-75
2022/06/11 03:37:54;;;;;;;10.25;4.68;;;;;;;;;;5097268;28;20267;-76
2022/06/11 03:40:21;;;;;;;10.25;4.90;;;;;;;;;;5107568;28;20034;-76
2022/06/11 03:42:47;;;;;;;11.95;5.20;;;;;;;;;;5096351;28;20043;-76
2022/06/11 03:45:13;;;;;;;13.82;5.15;;;;;;;;;;5084628;28;20032;-77
2022/06/11 03:47:40;;;;;;;13.68;5.78;;;;;;;;;;5087826;27;20087;-76
2022/06/11 03:50:15;;;;;;;10.77;5.25;;;;;;;;;;5094865;28;20051;-76
2022/06/11 03:52:41;;;;;;;11.48;5.22;;;;;;;;;;5104761;28;20036;-77
2022/06/11 03:55:08;;;;;;;13.80;5.50;;;;;;;;;;5101087;27;20487;-76
2022/06/11 03:57:34;;;;;;;12.35;5.05;;;;;;;;;;5096983;28;20491;-77
2022/06/11 04:00:02;;;;;;;14.23;5.53;;;;;;;;;;5090096;28;20173;-76
2022/06/11 04:02:28;;;;;;;13.40;5.38;;;;;;;;;;5096308;27;20387;-76
2022/06/11 04:04:54;;;;;;;9.38;4.75;;;;;;;;;;5101585;28;20421;-76
2022/06/11 04:07:21;;;;;;;12.23;5.10;;;;;;;;;;5104417;28;20142;-76
2022/06/11 04:09:47;;;;;;;13.00;5.65;;;;;;;;;;5094053;28;20306;-77
2022/06/11 04:12:15;;;;;;;10.43;4.63;;;;;;;;;;5105627;28;20048;-76
2022/06/11 04:14:43;;;;;;;12.70;5.18;;;;;;;;;;5099913;28;20042;-76
2022/06/11 04:17:14;;;;;;;11.35;5.00;;;;;;;;;;5080915;28;20047;-76
2022/06/11 04:19:42;;;;;;;10.05;5.13;;;;;;;;;;5105641;28;20509;-76
2022/06/11 04:22:08;;;;;;;12.60;5.53;;;;;;;;;;5095838;28;20039;-76
2022/06/11 04:24:35;;;;;;;12.65;5.35;;;;;;;;;;5100847;28;20089;-76
2022/06/11 04:27:02;;;;;;;10.73;5.57;;;;;;;;;;5105375;27;20031;-76
2022/06/11 04:29:30;;;;;;;16.40;5.57;;;;;;;;;;5098679;27;20513;-76
2022/06/11 04:31:58;;;;;;;16.00;5.82;;;;;;;;;;5109393;28;20043;-76
2022/06/11 04:34:26;;;;;;;12.48;5.90;;;;;;;;;;5104247;27;20514;-76
2022/06/11 04:37:02;;;;;;;16.08;6.78;;;;;;;;;;5101137;28;20509;-76
2022/06/11 04:39:30;;;;;;;11.85;7.68;;;;;;;;;;5111285;27;20055;-76
2022/06/11 04:41:56;;;;;;;14.35;9.95;;;;;;;;;;5085979;28;20035;-76
2022/06/11 04:44:23;;;;;;;20.73;11.55;;;;;;;;;;5105227;27;20080;-76
2022/06/11 04:46:49;;;;;;;17.90;11.50;;;;;;;;;;5082824;28;20042;-77
2022/06/11 04:49:16;;;;;;;18.30;11.88;;;;;;;;;;5093928;27;20093;-76
2022/06/11 04:51:42;;;;;;;16.58;11.40;;;;;;;;;;5100076;27;20046;-77
2022/06/11 04:54:08;;;;;;;15.98;10.85;;;;;;;;;;5104252;28;20046;-77
2022/06/11 04:56:34;;;;;;;18.17;10.48;;;;;;;;;;5108595;27;20053;-76
2022/06/11 04:59:01;;;;;;;16.25;10.00;;;;;;;;;;5097648;27;20051;-76
2022/06/11 05:01:28;;;;;;;19.38;10.00;;;;;;;;;;5106297;28;20096;-77
2022/06/11 05:03:55;;;;;;;16.17;9.20;;;;;;;;;;5090773;28;20410;-77
2022/06/11 05:06:27;;;;;;;16.10;8.32;;;;;;;;;;5090646;28;20759;-77
2022/06/11 05:08:54;;;;;;;14.88;6.95;;;;;;;;;;5109980;27;20506;-76
2022/06/11 05:11:20;;;;;;;14.55;6.95;;;;;;;;;;5095509;28;20047;-76
2022/06/11 05:13:47;;;;;;;16.42;7.15;;;;;;;;;;5078817;28;20422;-76
2022/06/11 05:16:15;;;;;;;15.05;7.25;;;;;;;;;;5092408;27;20074;-77
2022/06/11 05:18:41;;;;;;;14.43;6.70;;;;;;;;;;5080781;28;20536;-77
2022/06/11 05:21:07;;;;;;;15.20;6.65;;;;;;;;;;5100919;27;20039;-76
2022/06/11 05:23:33;;;;;;;14.75;6.60;;;;;;;;;;5116030;27;20126;-77
2022/06/11 05:26:00;;;;;;;17.15;6.63;;;;;;;;;;5102194;28;20773;-76
2022/06/11 05:28:29;;;;;;;15.93;6.22;;;;;;;;;;5111991;27;20053;-77
2022/06/11 05:30:56;;;;;;;14.70;6.03;;;;;;;;;;5100568;27;20046;-76
2022/06/11 05:33:23;;;;;;;12.00;6.00;;;;;;;;;;5115837;27;20517;-77
2022/06/11 05:35:50;;;;;;;15.45;6.60;;;;;;;;;;5115631;27;20069;-76
2022/06/11 05:38:19;;;;;;;18.27;6.05;;;;;;;;;;5113295;27;20051;-76
2022/06/11 05:40:48;;;;;;;19.45;5.78;;;;;;;;;;5087344;27;20549;-77
2022/06/11 05:43:14;;;;;;;16.92;5.82;;;;;;;;;;5088856;28;20092;-76
2022/06/11 05:45:44;;;;;;;16.58;5.90;;;;;;;;;;5100486;28;20114;-76
2022/06/11 05:48:10;;;;;;;14.73;5.78;;;;;;;;;;5107353;27;20075;-76
2022/06/11 05:50:40;;;;;;;15.77;5.13;;;;;;;;;;5098570;27;20043;-76
2022/06/11 05:53:07;;;;;;;17.50;5.90;;;;;;;;;;5086561;28;20127;-77
2022/06/11 05:55:35;;;;;;;16.50;6.00;;;;;;;;;;5100666;28;20036;-77
2022/06/11 05:58:02;;;;;;;15.23;5.07;;;;;;;;;;5092301;27;20246;-76
2022/06/11 06:00:29;;;;;;;14.77;5.30;;;;;;;;;;5098967;27;20035;-76
2022/06/11 06:02:55;;;;;;;16.15;5.30;;;;;;;;;;5103354;28;20645;-76
2022/06/11 06:05:24;;;;;;;17.85;5.68;;;;;;;;;;5106954;27;20411;-77
2022/06/11 06:07:50;;;;;;;17.48;5.22;;;;;;;;;;5078236;28;20078;-77
2022/06/11 06:10:17;;;;;;;17.80;5.38;;;;;;;;;;5092009;28;20066;-76
2022/06/11 06:12:43;;;;;;;12.15;4.93;;;;;;;;;;5092572;28;20044;-77
2022/06/11 06:15:15;;;;;;;14.80;5.10;;;;;;;;;;5089329;27;20533;-78
2022/06/11 06:17:41;;;;;;;15.65;4.90;;;;;;;;;;5092288;27;20122;-79
2022/06/11 06:20:08;;;;;;;18.10;5.60;;;;;;;;;;5098419;27;20031;-79
2022/06/11 06:22:35;;;;;;;15.32;5.28;;;;;;;;;;5107391;27;20118;-80
2022/06/11 06:25:01;;;;;;;15.48;4.93;;;;;;;;;;5111769;27;20039;-79
2022/06/11 06:27:34;;;;;;;20.35;5.47;;;;;;;;;;5096181;27;20042;-80
2022/06/11 06:30:00;;;;;;;21.95;5.45;;;;;;;;;;5106725;28;20032;-79
2022/06/11 06:32:26;;;;;;;20.52;5.60;;;;;;;;;;5101948;27;20088;-79
2022/06/11 06:34:53;;;;;;;18.02;5.25;;;;;;;;;;5081609;28;20331;-79
2022/06/11 06:37:22;;;;;;;18.90;5.45;;;;;;;;;;5110348;27;20118;-80
2022/06/11 06:39:48;;;;;;;17.15;4.82;;;;;;;;;;5106641;28;20066;-79
2022/06/11 06:42:14;;;;;;;19.42;6.03;;;;;;;;;;5098460;27;20154;-79
2022/06/11 06:44:41;;;;;;;17.58;5.32;;;;;;;;;;5078954;28;20487;-79
2022/06/11 06:47:07;;;;;;;19.58;5.70;;;;;;;;;;5090732;27;20136;-78
2022/06/11 06:49:33;;;;;;;19.25;6.60;;;;;;;;;;5112185;27;20132;-79
2022/06/11 06:51:59;;;;;;;15.43;5.63;;;;;;;;;;5102367;28;20043;-79
2022/06/11 06:54:26;;;;;;;13.93;5.57;;;;;;;;;;5104818;27;20054;-79
2022/06/11 06:56:52;;;;;;;23.95;5.50;;;;;;;;;;5075188;28;20067;-77
2022/06/11 06:59:18;;;;;;;17.88;5.95;;;;;;;;;;5071775;27;20383;-76
2022/06/11 07:01:45;;;;;;;20.60;5.75;;;;;;;;;;5103282;28;20118;-78
2022/06/11 07:04:11;;;;;;;21.77;5.90;;;;;;;;;;5103912;27;20035;-76
2022/06/11 07:06:38;;;;;;;17.30;5.40;;;;;;;;;;5078774;28;20035;-77
2022/06/11 07:09:04;;;;;;;21.92;6.18;;;;;;;;;;5107796;28;20052;-77
2022/06/11 07:11:30;;;;;;;15.40;5.28;;;;;;;;;;5087015;28;20047;-77
2022/06/11 07:14:04;;;;;;;18.58;6.00;;;;;;;;;;5089583;28;20040;-77
2022/06/11 07:16:36;;;;;;;18.50;6.63;;;;;;;;;;5094052;28;20509;-77
2022/06/11 07:19:03;;;;;;;17.83;6.25;;;;;;;;;;5103012;27;20577;-78
2022/06/11 07:21:33;;;;;;;16.02;5.95;;;;;;;;;;5093736;28;20045;-78
2022/06/11 07:24:02;;;;;;;18.48;5.03;;;;;;;;;;5093736;28;20063;-77
2022/06/11 07:26:39;;;;;;;19.13;5.70;;;;;;;;;;5091839;27;20039;-78
2022/06/11 07:29:09;;;;;;;17.60;6.07;;;;;;;;;;5095704;28;20549;-78
2022/06/11 07:31:35;;;;;;;24.50;6.70;;;;;;;;;;5090939;28;20122;-77
2022/06/11 07:34:02;;;;;;;19.25;6.00;;;;;;;;;;5095593;28;20175;-77
2022/06/11 07:36:28;;;;;;;17.70;6.40;;;;;;;;;;5092884;27;20063;-78
2022/06/11 07:38:54;;;;;;;17.60;5.63;;;;;;;;;;5101232;27;20035;-79
2022/06/11 07:41:20;;;;;;;21.73;5.88;;;;;;;;;;5111833;27;20387;-77
2022/06/11 07:43:52;;;;;;;24.20;6.05;;;;;;;;;;5093854;28;20035;-77
2022/06/11 07:46:19;;;;;;;17.88;5.65;;;;;;;;;;5094391;28;20053;-77
2022/06/11 07:48:45;;;;;;;23.13;6.43;;;;;;;;;;5086194;28;20104;-78
2022/06/11 07:51:12;;;;;;;23.17;6.32;;;;;;;;;;5076995;28;20039;-78
2022/06/11 07:53:39;;;;;;;19.65;5.90;;;;;;;;;;5091434;28;20486;-77
2022/06/11 07:56:05;;;;;;;21.30;6.15;;;;;;;;;;5071299;27;20028;-77
2022/06/11 07:58:32;;;;;;;20.63;5.80;;;;;;;;;;5094566;28;20447;-78
2022/06/11 08:00:58;;;;;;;17.23;6.57;;;;;;;;;;5094604;28;20035;-78
2022/06/11 08:03:27;;;;;;;18.33;5.72;;;;;;;;;;5091398;28;20043;-79
2022/06/11 08:05:54;;;;;;;18.48;6.07;;;;;;;;;;5087024;28;20097;-78
2022/06/11 08:08:21;;;;;;;17.35;5.40;;;;;;;;;;5095044;27;20039;-79
2022/06/11 08:10:47;;;;;;;17.83;6.07;;;;;;;;;;5091811;28;20122;-79
2022/06/11 08:13:14;;;;;;;16.83;5.50;;;;;;;;;;5094785;28;20039;-78
2022/06/11 08:15:41;;;;;;;20.83;5.72;;;;;;;;;;5090565;28;20052;-80
2022/06/11 08:18:08;;;;;;;17.33;5.82;;;;;;;;;;5096713;28;20031;-77
2022/06/11 08:20:35;;;;;;;17.25;5.90;;;;;;;;;;5097904;28;20115;-77
2022/06/11 08:23:02;;;;;;;18.38;5.35;;;;;;;;;;5099848;28;20074;-76
2022/06/11 08:25:28;;;;;;;18.67;5.55;;;;;;;;;;5101058;28;20504;-77
2022/06/11 08:27:56;;;;;;;20.60;5.60;;;;;;;;;;5101503;28;20039;-78
2022/06/11 08:30:23;;;;;;;13.80;5.28;;;;;;;;;;5100905;28;20161;-77
2022/06/11 08:32:49;;;;;;;16.35;5.20;;;;;;;;;;5102036;28;20041;-77
2022/06/11 08:35:18;;;;;;;17.83;6.13;;;;;;;;;;5082278;28;20517;-78
2022/06/11 08:37:44;;;;;;;15.45;4.85;;;;;;;;;;5094888;28;20039;-77
2022/06/11 08:40:20;;;;;;;20.05;5.45;;;;;;;;;;5098832;28;20089;-77
2022/06/11 08:42:50;;;;;;;16.00;4.80;;;;;;;;;;5102751;28;20100;-77
2022/06/11 08:45:22;;;;;;;18.27;5.00;;;;;;;;;;5082778;28;20359;-77
2022/06/11 08:47:50;;;;;;;15.68;4.72;;;;;;;;;;5096750;28;20035;-77
2022/06/11 08:50:35;;;;;;;20.35;5.32;;;;;;;;;;5093758;28;20044;-76
2022/06/11 08:53:02;;;;;;;16.67;4.90;;;;;;;;;;5087340;28;20053;-77
2022/06/11 08:55:32;;;;;;;16.98;5.38;;;;;;;;;;5090609;28;20040;-77
2022/06/11 08:58:06;;;;;;;18.17;4.90;;;;;;;;;;5093384;28;20514;-76
2022/06/11 09:00:37;;;;;;;14.63;4.45;;;;;;;;;;5097573;28;20089;-76
2022/06/11 09:03:16;;;;;;;15.70;5.28;;;;;;;;;;5076235;28;20039;-76
2022/06/11 09:05:49;;;;;;;15.35;4.63;;;;;;;;;;5087080;28;20034;-77
2022/06/11 09:08:22;;;;;;;18.05;4.97;;;;;;;;;;5090579;28;20088;-77
2022/06/11 09:10:58;;;;;;;17.15;5.38;;;;;;;;;;5086185;28;20039;-79
2022/06/11 09:13:27;;;;;;;16.77;4.60;;;;;;;;;;5075291;28;20035;-77
2022/06/11 09:16:01;;;;;;;18.20;5.18;;;;;;;;;;5075794;27;20034;-77
2022/06/11 09:18:27;;;;;;;16.35;4.65;;;;;;;;;;5102600;27;20047;-77
2022/06/11 09:20:57;;;;;;;14.73;4.43;;;;;;;;;;5068659;28;20117;-77
2022/06/11 09:23:41;;;;;;;15.05;4.60;;;;;;;;;;5091534;28;20143;-77
2022/06/11 09:26:26;;;;;;;12.88;4.13;;;;;;;;;;5087255;28;20036;-77
2022/06/11 09:28:52;;;;;;;;;;;;;;;;;;5092431;27;20031;-77
2022/06/11 09:31:36;;;;;;;14.73;4.05;;;;;;;;;;5092538;28;19916;-77
2022/06/11 09:34:14;;;;;;;13.80;4.13;;;;;;;;;;5101630;27;20096;-76
2022/06/11 09:36:47;;;;;;;14.90;4.15;;;;;;;;;;5102355;27;20502;-77
2022/06/11 09:39:19;;;;;;;16.95;4.40;;;;;;;;;;5103093;27;20509;-77
2022/06/11 09:41:54;;;;;;;15.15;4.25;;;;;;;;;;5099928;28;20039;-76
2022/06/11 09:44:40;;;;;;;12.80;3.42;;;;;;;;;;5104340;27;20494;-75
2022/06/11 09:47:12;;;;;;;14.10;4.13;;;;;;;;;;5099513;27;20566;-77
2022/06/11 09:49:39;;;;;;;14.45;3.75;;;;;;;;;;5101723;27;20042;-76
2022/06/11 09:52:20;;;;;;;13.02;4.13;;;;;;;;;;5104743;27;20031;-77
2022/06/11 09:54:55;;;;;;;17.95;4.28;;;;;;;;;;5100171;27;20048;-77
2022/06/11 09:57:21;;;;;;;11.40;3.60;;;;;;;;;;5101452;27;20092;-77
2022/06/11 10:00:14;;;;;;;13.68;3.97;;;;;;;;;;5102225;27;20063;-77
2022/06/11 10:03:04;;;;;;;15.60;3.58;;;;;;;;;;5097126;27;20521;-77
2022/06/11 10:05:49;;;;;;;12.80;3.42;;;;;;;;;;5091081;27;20121;-77
2022/06/11 10:08:28;;;;;;;13.48;3.50;;;;;;;;;;5070933;28;20436;-76
2022/06/11 10:10:55;;;;;;;14.50;3.92;;;;;;;;;;5067990;28;20097;-75
2022/06/11 10:13:30;;;;;;;11.90;3.60;;;;;;;;;;5079857;28;20117;-77
2022/06/11 10:15:57;;;;;;;9.50;3.15;;;;;;;;;;5075252;28;20387;-76
2022/06/11 10:18:29;;;;;;;13.25;4.03;;;;;;;;;;5067236;28;20418;-77
2022/06/11 10:21:13;;;;;;;11.40;3.30;;;;;;;;;;5096197;27;20445;-76
2022/06/11 10:24:05;;;;;;;12.75;3.90;;;;;;;;;;5097665;27;20096;-77
2022/06/11 10:26:44;;;;;;;12.35;3.50;;;;;;;;;;5089262;28;20576;-76
2022/06/11 10:29:14;;;;;;;15.30;3.60;;;;;;;;;;5089728;28;20040;-77
2022/06/11 10:31:42;;;;;;;12.85;3.50;;;;;;;;;;5093049;27;20047;-76
2022/06/11 10:34:18;;;;;;;16.60;3.50;;;;;;;;;;5081969;27;20039;-76
2022/06/11 10:37:05;;;;;;;12.77;3.15;;;;;;;;;;5100980;27;20031;-76
2022/06/11 10:39:36;;;;;;;13.77;3.22;;;;;;;;;;5085863;28;20209;-75
2022/06/11 10:42:10;;;;;;;13.57;3.63;;;;;;;;;;5095662;28;20130;-75
2022/06/11 10:45:05;;;;;;;11.88;3.50;;;;;;;;;;5094933;27;20036;-74
2022/06/11 10:47:40;;;;;;;10.50;3.22;;;;;;;;;;5081731;27;20040;-75
2022/06/11 10:50:09;;;;;;;13.45;3.22;;;;;;;;;;5101395;27;20047;-75
2022/06/11 10:52:45;;;;;;;11.32;2.90;;;;;;;;;;5099931;28;20122;-74
2022/06/11 10:55:15;;;;;;;9.65;2.35;;;;;;;;;;5102912;27;20043;-76
2022/06/11 10:57:41;;;;;;;10.57;3.00;;;;;;;;;;5098440;27;20039;-75
2022/06/11 11:00:14;;;;;;;11.95;3.17;;;;;;;;;;5113431;27;20050;-76
2022/06/11 11:02:43;;;;;;;14.30;2.85;;;;;;;;;;5093741;28;20109;-76
2022/06/11 11:05:11;;;;;;;12.05;3.13;;;;;;;;;;5109095;28;20059;-75
2022/06/11 11:07:42;;;;;;;13.75;3.28;;;;;;;;;;5080800;27;20037;-76
2022/06/11 11:10:19;;;;;;;11.50;3.00;;;;;;;;;;5089280;28;20059;-76
2022/06/11 11:12:46;;;;;;;9.82;2.88;;;;;;;;;;5088141;28;20482;-75
2022/06/11 11:15:14;;;;;;;16.48;4.45;;;;;;;;;;5092617;28;20039;-76
2022/06/11 11:17:48;;;;;;;10.80;2.95;;;;;;;;;;5076340;28;20035;-76
2022/06/11 11:20:30;;;;;;;12.30;3.03;;;;;;;;;;5090005;28;20314;-78
2022/06/11 11:23:02;;;;;;;11.30;3.38;;;;;;;;;;5090115;27;20089;-76
2022/06/11 11:25:48;;;;;;;11.23;3.08;;;;;;;;;;5093287;27;20074;-75
2022/06/11 11:28:21;;;;;;;9.45;3.10;;;;;;;;;;5093257;28;20035;-75
2022/06/11 11:30:55;;;;;;;9.38;2.90;;;;;;;;;;5099932;27;20130;-76
2022/06/11 11:33:24;;;;;;;11.38;3.13;;;;;;;;;;5074331;28;20048;-76
2022/06/11 11:36:09;;;;;;;11.75;3.70;;;;;;;;;;5088162;27;20123;-76
2022/06/11 11:38:35;;;;;;;11.27;3.38;;;;;;;;;;5086849;28;20035;-75
2022/06/11 11:41:02;;;;;;;11.27;3.00;;;;;;;;;;5092719;27;20050;-74
2022/06/11 11:43:40;;;;;;;12.55;2.95;;;;;;;;;;5096334;28;20039;-74
2022/06/11 11:46:11;;;;;;;11.38;3.33;;;;;;;;;;5086193;27;20071;-75
2022/06/11 11:48:43;;;;;;;11.82;3.10;;;;;;;;;;5094607;27;20050;-75
2022/06/11 11:51:28;;;;;;;12.20;2.97;;;;;;;;;;5072309;28;20035;-74
2022/06/11 11:54:00;;;;;;;10.60;2.90;;;;;;;;;;5074504;28;20567;-75
2022/06/11 11:56:26;;;;;;;11.05;3.05;;;;;;;;;;5091174;28;20051;-75
2022/06/11 11:58:55;;;;;;;13.95;3.78;;;;;;;;;;5090998;27;20386;-75
2022/06/11 12:01:23;;;;;;;10.30;2.92;;;;;;;;;;5085099;28;20514;-75
2022/06/11 12:03:52;;;;;;;10.40;2.72;;;;;;;;;;5086896;28;20039;-76
2022/06/11 12:06:27;;;;;;;9.77;3.60;;;;;;;;;;5104224;28;20092;-76
2022/06/11 12:08:55;;;;;;;14.57;3.88;;;;;;;;;;5101657;28;20083;-76
2022/06/11 12:11:25;;;;;;;10.10;3.03;;;;;;;;;;5083486;28;20099;-75
2022/06/11 12:13:53;;;;;;;13.10;3.53;;;;;;;;;;5057205;28;20039;-75
2022/06/11 12:16:22;;;;;;;11.50;3.33;;;;;;;;;;5098123;28;20122;-75
2022/06/11 12:18:53;;;;;;;10.80;3.30;;;;;;;;;;5098644;28;20233;-75
2022/06/11 12:21:22;;;;;;;11.45;2.92;;;;;;;;;;5090148;28;20496;-75
2022/06/11 12:24:02;;;;;;;9.13;3.15;;;;;;;;;;5094644;28;20038;-75
2022/06/11 12:26:31;;;;;;;10.10;2.90;;;;;;;;;;5100644;28;20040;-74
2022/06/11 12:29:05;;;;;;;9.93;3.22;;;;;;;;;;5104660;28;20039;-74
2022/06/11 12:31:32;;;;;;;11.70;3.17;;;;;;;;;;5094079;28;20398;-74
2022/06/11 12:34:00;;;;;;;11.77;3.17;;;;;;;;;;5086723;28;20047;-75
2022/06/11 12:36:37;;;;;;;12.73;3.25;;;;;;;;;;5101692;28;20249;-75
2022/06/11 12:39:12;;;;;;;11.15;3.10;;;;;;;;;;5093701;28;20040;-75
2022/06/11 12:41:54;;;;;;;10.60;3.05;;;;;;;;;;5088514;28;20447;-75
2022/06/11 12:44:26;;;;;;;10.98;3.05;;;;;;;;;;5102081;28;20039;-75
2022/06/11 12:47:13;;;;;;;10.02;3.22;;;;;;;;;;5094119;28;20046;-76
2022/06/11 12:49:53;;;;;;;10.40;3.05;;;;;;;;;;5032603;27;20082;-75
2022/06/11 12:52:25;;;;;;;8.43;2.90;;;;;;;;;;5118904;27;20092;-75
2022/06/11 12:55:01;;;;;;;10.40;3.00;;;;;;;;;;5127771;27;20478;-75
2022/06/11 12:57:46;;;;;;;9.82;2.72;;;;;;;;;;5117626;27;20406;-75
2022/06/11 13:00:14;;;;;;;;;;;;;;;;;;5114677;27;20483;-74
2022/06/11 13:02:43;;;;;;;11.50;2.60;;;;;;;;;;5114901;27;19969;-75
2022/06/11 13:05:28;;;;;;;9.50;3.05;;;;;;;;;;5092980;27;20067;-76
2022/06/11 13:07:59;;;;;;;10.25;2.67;;;;;;;;;;5104976;28;20038;-75
2022/06/11 13:10:32;;;;;;;9.55;2.88;;;;;;;;;;5111610;27;20126;-77
2022/06/11 13:12:58;;;;;;;18.75;3.10;;;;;;;;;;5092528;28;20036;-77
2022/06/11 13:15:24;;;;;;;11.30;3.30;;;;;;;;;;5084221;28;20042;-77
2022/06/11 13:17:54;;;;;;;9.82;2.78;;;;;;;;;;5109515;28;20028;-77
2022/06/11 13:20:26;;;;;;;10.40;2.78;;;;;;;;;;5095614;28;20032;-76
2022/06/11 13:23:05;;;;;;;10.40;3.13;;;;;;;;;;5086274;28;20371;-77
2022/06/11 13:25:40;;;;;;;10.15;2.80;;;;;;;;;;5107246;27;20054;-76
2022/06/11 13:28:06;;;;;;;;;;;;;;;;;;5112055;27;20051;-76
2022/06/11 13:30:45;;;;;;;11.52;2.85;;;;;;;;;;5129112;27;19919;-76
2022/06/11 13:33:17;;;;;;;10.10;3.28;;;;;;;;;;5104095;27;20047;-77
2022/06/11 13:35:51;;;;;;;8.40;2.50;;;;;;;;;;5106022;28;20040;-76
2022/06/11 13:38:24;;;;;;;8.02;2.35;;;;;;;;;;5081745;28;20050;-77
2022/06/11 13:41:10;;;;;;;10.07;3.00;;;;;;;;;;5106049;27;20063;-76
2022/06/11 13:43:39;;;;;;;12.50;3.00;;;;;;;;;;5125527;27;20124;-76
2022/06/11 13:46:16;;;;;;;11.65;3.40;;;;;;;;;;5113613;27;20089;-75
2022/06/11 13:49:01;;;;;;;13.05;3.40;;;;;;;;;;5113480;28;20043;-86
2022/06/11 13:51:32;;;;;;;11.50;3.10;;;;;;;;;;5115218;28;20414;-91
2022/06/11 13:56:49;;;;;;;10.45;3.42;;;;;;;;;;5133224;27;20047;-82
2022/06/11 13:59:21;;;;;;;13.15;3.20;;;;;;;;;;5132483;27;20046;-83
2022/06/11 14:01:55;;;;;;;11.25;3.30;;;;;;;;;;5129446;27;20066;-82
2022/06/11 14:04:28;;;;;;;11.05;2.95;;;;;;;;;;5092728;28;20039;-82
2022/06/11 14:06:56;;;;;;;10.05;3.40;;;;;;;;;;5112327;27;20028;-81
2022/06/11 14:12:28;;;;;;;12.05;3.50;;;;;;;;;;5112313;28;20529;-82
2022/06/11 14:14:54;;;;;;;;;;;;;;;;;;5100518;28;20086;-81
2022/06/11 14:17:39;;;;;;;11.30;2.78;;;;;;;;;;5110453;28;19938;-83
2022/06/11 14:20:05;;;;;;;;;;;;;;;;;;5089554;28;20043;-82
2022/06/11 14:22:46;;;;;;;14.30;2.97;;;;;;;;;;5073665;28;19962;-84
2022/06/11 14:25:33;;;;;;;11.50;2.70;;;;;;;;;;5092062;28;20043;-85
2022/06/11 14:28:19;;;;;;;11.60;3.00;;;;;;;;;;5111510;27;20043;-83
2022/06/11 14:30:45;;;;;;;12.27;3.08;;;;;;;;;;5104772;28;20040;-83
2022/06/11 14:33:12;;;;;;;10.15;3.42;;;;;;;;;;5112710;27;20447;-85
2022/06/11 14:35:53;;;;;;;11.13;3.20;;;;;;;;;;5110648;27;20425;-87
2022/06/11 14:38:39;;;;;;;11.00;2.90;;;;;;;;;;5111779;28;20043;-84
2022/06/11 14:41:10;;;;;;;9.52;3.53;;;;;;;;;;5112185;28;20507;-83
2022/06/11 14:43:58;;;;;;;12.07;3.53;;;;;;;;;;5111825;28;20044;-83
2022/06/11 14:46:33;;;;;;;11.25;2.90;;;;;;;;;;5095135;28;20386;-83
2022/06/11 14:49:04;;;;;;;8.77;3.20;;;;;;;;;;5113726;27;20039;-84
2022/06/11 14:51:31;;;;;;;11.15;3.15;;;;;;;;;;5108904;28;20040;-85
2022/06/11 14:54:05;;;;;;;16.88;4.00;;;;;;;;;;5092870;28;20040;-83
2022/06/11 14:56:41;;;;;;;10.95;2.90;;;;;;;;;;5110221;28;20502;-84
2022/06/11 14:59:13;;;;;;;14.13;3.50;;;;;;;;;;5091237;27;20313;-84
2022/06/11 15:01:48;;;;;;;13.52;3.60;;;;;;;;;;5094529;28;20040;-84
2022/06/11 15:04:33;;;;;;;11.90;3.13;;;;;;;;;;5102241;28;20035;-85
2022/06/11 15:07:08;;;;;;;9.75;3.55;;;;;;;;;;5085270;27;20046;-85